OAL293 LGAV-LGKR
Flight info
| Callsign | OAL293 |
|---|---|
| Flight time | N/A |
| Altitude | 26000 |
| Route | KOR UL53 PARNA |
| Aircraft | A320/M-SDE3FGHIRWY/LB1 |
Departure
| Time | 2026-05-05 21:42 |
|---|---|
| Airport | Athens Eleftherios Venizelos International Airport (LGAV) |
Arrival
| Time | N/A |
|---|---|
| Airport | Corfu Ioannis Kapodistrias International Airport (LGKR) |
| Time | Latitude | Longitude | Altitude | Speed | Heading |
|---|---|---|---|---|---|
| 2026-05-05 21:10 | 37.93413 | 23.94657 | 287 ft | 0 kts | 298° |
| 2026-05-05 21:31 | 37.93411 | 23.94660 | 289 ft | 2 kts | 298° |
| 2026-05-05 21:31 | 37.93403 | 23.94679 | 293 ft | 3 kts | 298° |
| 2026-05-05 21:31 | 37.93395 | 23.94699 | 291 ft | 2 kts | 298° |
| 2026-05-05 21:31 | 37.93387 | 23.94718 | 289 ft | 2 kts | 298° |
| 2026-05-05 21:32 | 37.93378 | 23.94737 | 290 ft | 3 kts | 291° |
| 2026-05-05 21:32 | 37.93375 | 23.94759 | 288 ft | 3 kts | 255° |
| 2026-05-05 21:32 | 37.93378 | 23.94772 | 288 ft | 0 kts | 233° |
| 2026-05-05 21:35 | 37.93369 | 23.94762 | 296 ft | 3 kts | 206° |
| 2026-05-05 21:35 | 37.93318 | 23.94782 | 287 ft | 11 kts | 156° |
| 2026-05-05 21:35 | 37.93247 | 23.94750 | 287 ft | 13 kts | 218° |
| 2026-05-05 21:35 | 37.93168 | 23.94676 | 287 ft | 15 kts | 215° |
| 2026-05-05 21:36 | 37.93073 | 23.94588 | 284 ft | 18 kts | 219° |
| 2026-05-05 21:36 | 37.92965 | 23.94482 | 283 ft | 19 kts | 217° |
| 2026-05-05 21:36 | 37.92885 | 23.94392 | 282 ft | 13 kts | 247° |
| 2026-05-05 21:36 | 37.92923 | 23.94287 | 282 ft | 15 kts | 307° |
| 2026-05-05 21:37 | 37.92990 | 23.94177 | 281 ft | 17 kts | 308° |
| 2026-05-05 21:37 | 37.93067 | 23.94049 | 281 ft | 19 kts | 308° |
| 2026-05-05 21:37 | 37.93150 | 23.93904 | 280 ft | 22 kts | 308° |
| 2026-05-05 21:37 | 37.93245 | 23.93745 | 279 ft | 24 kts | 307° |
| 2026-05-05 21:38 | 37.93349 | 23.93574 | 279 ft | 25 kts | 305° |
| 2026-05-05 21:38 | 37.93426 | 23.93435 | 279 ft | 14 kts | 298° |
| 2026-05-05 21:38 | 37.93381 | 23.93327 | 278 ft | 18 kts | 216° |
| 2026-05-05 21:38 | 37.93253 | 23.93212 | 276 ft | 25 kts | 216° |
| 2026-05-05 21:39 | 37.93108 | 23.93077 | 278 ft | 27 kts | 217° |
| 2026-05-05 21:39 | 37.92951 | 23.92927 | 272 ft | 29 kts | 217° |
| 2026-05-05 21:39 | 37.92814 | 23.92798 | 271 ft | 25 kts | 216° |
| 2026-05-05 21:39 | 37.92666 | 23.92661 | 270 ft | 28 kts | 216° |
| 2026-05-05 21:40 | 37.92516 | 23.92508 | 268 ft | 23 kts | 215° |
| 2026-05-05 21:40 | 37.92379 | 23.92379 | 266 ft | 26 kts | 216° |
| 2026-05-05 21:40 | 37.92229 | 23.92248 | 264 ft | 21 kts | 220° |
| 2026-05-05 21:40 | 37.92130 | 23.92151 | 263 ft | 11 kts | 217° |
| 2026-05-05 21:41 | 37.92114 | 23.92087 | 262 ft | 8 kts | 306° |
| 2026-05-05 21:41 | 37.92144 | 23.92009 | 261 ft | 12 kts | 301° |
| 2026-05-05 21:41 | 37.92227 | 23.91968 | 261 ft | 16 kts | 27° |
| 2026-05-05 21:41 | 37.92342 | 23.92072 | 263 ft | 36 kts | 36° |
| 2026-05-05 21:42 | 37.92766 | 23.92474 | 271 ft | 111 kts | 37° |
| 2026-05-05 21:42 | 37.93540 | 23.93206 | 307 ft | 161 kts | 36° |
| 2026-05-05 21:42 | 37.94443 | 23.94068 | 907 ft | 165 kts | 37° |
| 2026-05-05 21:42 | 37.95388 | 23.94946 | 1581 ft | 171 kts | 32° |
| 2026-05-05 21:43 | 37.96411 | 23.95769 | 2306 ft | 177 kts | 30° |
| 2026-05-05 21:43 | 37.97495 | 23.96644 | 2742 ft | 195 kts | 32° |
| 2026-05-05 21:43 | 37.98615 | 23.97740 | 3071 ft | 218 kts | 39° |
| 2026-05-05 21:43 | 37.99863 | 23.99024 | 3394 ft | 245 kts | 34° |
| 2026-05-05 21:44 | 38.01296 | 24.00304 | 4165 ft | 250 kts | 34° |
| 2026-05-05 21:44 | 38.02719 | 24.01529 | 5209 ft | 247 kts | 33° |
| 2026-05-05 21:44 | 38.04153 | 24.02781 | 6013 ft | 253 kts | 34° |
| 2026-05-05 21:44 | 38.05578 | 24.04125 | 6835 ft | 256 kts | 37° |
| 2026-05-05 21:45 | 38.06975 | 24.05553 | 7661 ft | 258 kts | 31° |
| 2026-05-05 21:45 | 38.08658 | 24.06255 | 8516 ft | 257 kts | 1° |
| 2026-05-05 21:45 | 38.10379 | 24.05750 | 9416 ft | 258 kts | 332° |
| 2026-05-05 21:45 | 38.11648 | 24.04204 | 10275 ft | 262 kts | 303° |
| 2026-05-05 21:46 | 38.12268 | 24.01930 | 10617 ft | 290 kts | 278° |
| 2026-05-05 21:46 | 38.12215 | 24.00149 | 10772 ft | 310 kts | 262° |